Time;durP1;ratioP1;P1;durP2;ratioP2;P2;SDS_P1;SDS_P2;PMS_P1;PMS_P2;Temp;Humidity;BMP_temperature;BMP_pressure;BME280_temperature;BME280_humidity;BME280_pressure;Samples;Min_cycle;Max_cycle;Signal;HPM_P1;HPM_P2
2023/10/14 03:59:33;;;;;;;1999.90;999.90;;;10.50;99.90;;;;;;6044204;23;20512;-96
2023/10/14 04:03:03;;;;;;;;;;;;;;;;;;;;;
2023/10/14 04:14:14;;;;;;;;;;;;;;;;;;;;;
2023/10/14 04:32:40;;;;;;;;;;;;;;;;;;;;;
2023/10/14 04:40:45;;;;;;;;;;;;;;;;;;;;;
2023/10/14 05:09:41;;;;;;;;;;;;;;;;;;;;;
2023/10/14 05:58:52;;;;;;;;;;;;;;;;;;;;;
2023/10/14 06:21:07;;;;;;;;;;;;;;;;;;;;;
2023/10/14 06:24:48;;;;;;;;;;;;;;;;;;;;;
2023/10/14 06:32:11;;;;;;;;;;;;;;;;;;;;;
2023/10/14 06:38:29;;;;;;;;;;;10.10;99.90;;;;;;6145620;23;20067;-93
2023/10/14 06:41:05;;;;;;;1999.90;999.90;;;10.20;99.90;;;;;;6189479;23;19923;-92
2023/10/14 06:46:56;;;;;;;;;;;;;;;;;;;;;
2023/10/14 06:53:39;;;;;;;;;;;;;;;;;;;;;
2023/10/14 06:56:53;;;;;;;1999.90;999.90;;;10.30;99.90;;;;;;6205408;23;20064;-95
2023/10/14 07:03:36;;;;;;;;;;;;;;;;;;;;;
2023/10/14 07:14:20;;;;;;;;;;;;;;;;;;;;;
2023/10/14 07:18:36;;;;;;;1999.90;999.90;;;10.30;99.90;;;;;;6243971;23;20024;-94
2023/10/14 07:20:47;;;;;;;1999.90;999.90;;;10.60;99.90;;;;;;6203683;23;20024;-94
2023/10/14 07:23:33;;;;;;;;;;;;;;;;;;;;;
2023/10/14 07:26:36;;;;;;;;;;;;;;;;;;;;;
2023/10/14 07:29:14;;;;;;;1999.90;999.90;;;10.80;99.90;;;;;;6216487;23;20058;-94
2023/10/14 07:32:25;;;;;;;;;;;;;;;;;;;;;
2023/10/14 08:18:40;;;;;;;;;;;;;;;;;;;;;
2023/10/14 08:25:47;;;;;;;;;;;;;;;;;;;;;
2023/10/14 09:48:31;;;;;;;;;;;;;;;;;;;;;
2023/10/14 10:26:53;;;;;;;;;;;;;;;;;;;;;
2023/10/14 10:30:22;;;;;;;1842.30;995.28;;;12.60;99.90;;;;;;5920912;24;20019;-92
2023/10/14 11:35:57;;;;;;;1482.63;962.15;;;13.30;99.90;;;;;;6021397;23;20024;-95
2023/10/14 11:42:21;;;;;;;1631.55;994.22;;;12.70;99.90;;;;;;6101776;23;20444;-96
2023/10/14 11:45:24;;;;;;;1783.78;991.72;;;12.50;99.90;;;;;;6084753;23;20068;-96
2023/10/14 11:48:13;;;;;;;1999.90;999.90;;;12.40;99.90;;;;;;6080090;23;20016;-94
2023/10/14 11:50:38;;;;;;;1646.63;985.15;;;12.30;99.90;;;;;;6215880;23;20090;-96
2023/10/14 11:53:16;;;;;;;;;;;;;;;;;;;;;
2023/10/14 11:56:53;;;;;;;1721.78;992.90;;;12.30;99.90;;;;;;6217313;23;20070;-95
2023/10/14 11:59:25;;;;;;;1999.90;999.90;;;12.40;99.90;;;;;;6188821;23;20024;-96
2023/10/14 12:02:19;;;;;;;1999.90;999.90;;;12.60;99.90;;;;;;6192230;23;20051;-96
2023/10/14 12:19:54;;;;;;;1379.13;919.30;;;12.60;99.90;;;;;;6156089;23;20020;-96
2023/10/14 12:22:24;;;;;;;1439.78;953.10;;;12.60;99.90;;;;;;6216278;23;20340;-95
2023/10/14 12:24:55;;;;;;;1360.28;909.58;;;12.70;99.90;;;;;;6192010;23;20019;-95
2023/10/14 12:27:48;;;;;;;1308.07;929.95;;;12.80;99.90;;;;;;6190205;23;20103;-95
2023/10/14 12:30:39;;;;;;;1568.40;938.55;;;12.80;99.90;;;;;;6217027;23;20024;-95
2023/10/14 14:09:33;;;;;;;1387.15;920.95;;;12.20;99.90;;;;;;4889414;29;20078;-96
2023/10/14 14:16:30;;;;;;;1309.13;907.25;;;12.20;99.90;;;;;;4931465;29;20075;-96
2023/10/14 14:20:15;;;;;;;;;;;;;;;;;;;;;
2023/10/14 14:23:06;;;;;;;1544.13;953.53;;;12.50;99.90;;;;;;4827657;29;20857;-96
2023/10/14 15:15:06;;;;;;;1999.90;999.90;;;12.00;99.90;;;;;;3291271;23;21266;31
2023/10/14 15:17:32;;;;;;;1999.90;999.90;;;11.60;99.90;;;;;;4905173;29;20811;-96
2023/10/14 15:20:05;;;;;;;1592.57;960.13;;;12.00;99.90;;;;;;4936541;29;20050;-96
2023/10/14 15:22:31;;;;;;;1660.35;986.30;;;12.00;99.90;;;;;;4925735;29;20138;-96
2023/10/14 15:25:47;;;;;;;1923.35;999.90;;;12.10;99.90;;;;;;4910944;29;20127;-96
2023/10/14 15:28:28;;;;;;;1433.20;934.83;;;12.20;99.90;;;;;;4937249;29;20052;-96
2023/10/14 15:31:34;;;;;;;1517.80;956.90;;;12.20;99.90;;;;;;4888553;29;20063;-96
2023/10/14 15:34:00;;;;;;;1526.18;963.47;;;12.10;99.90;;;;;;4922019;29;20082;-96
2023/10/14 15:36:52;;;;;;;1471.55;946.00;;;12.10;99.90;;;;;;4911838;29;20074;-96
2023/10/14 15:39:54;;;;;;;1465.80;947.15;;;12.10;99.90;;;;;;4921332;29;20051;-96
2023/10/14 15:42:50;;;;;;;1414.10;956.83;;;12.00;99.90;;;;;;4885766;29;20055;-96
2023/10/14 15:45:47;;;;;;;;;;;;;;;;;;;;;
2023/10/14 15:48:36;;;;;;;1999.90;999.90;;;11.80;99.90;;;;;;4957234;28;20051;-92
2023/10/14 15:51:25;;;;;;;1766.97;999.90;;;11.60;99.90;;;;;;4926285;29;20063;-95
2023/10/14 16:36:16;;;;;;;1999.90;999.90;;;10.60;99.90;;;;;;4782886;29;20049;-95
2023/10/14 16:51:48;;;;;;;1999.90;999.90;;;10.50;99.90;;;;;;4830293;29;20125;-95
2023/10/14 17:06:59;;;;;;;;;;;;;;;;;;;;;
2023/10/14 17:10:03;;;;;;;1999.90;999.90;;;10.40;99.90;;;;;;4801797;29;20050;-93
2023/10/14 17:20:26;;;;;;;;;;;;;;;;;;;;;
2023/10/14 17:34:43;;;;;;;1999.90;999.90;;;10.20;99.90;;;;;;4870588;29;20496;-95
2023/10/14 17:37:20;;;;;;;1999.90;999.90;;;10.10;99.90;;;;;;4885472;29;20058;-96
2023/10/14 17:40:54;;;;;;;;;;;;;;;;;;;;;
2023/10/14 17:51:54;;;;;;;1999.90;999.90;;;9.80;99.90;;;;;;4857021;29;20062;-93
2023/10/14 19:17:51;;;;;;;1999.90;999.90;;;9.60;99.90;;;;;;609363;23;20321;-95
2023/10/14 19:20:22;;;;;;;1999.90;999.90;;;9.60;99.90;;;;;;4954009;29;20047;-95
2023/10/14 19:23:23;;;;;;;1999.90;999.90;;;9.50;99.90;;;;;;4929908;28;20039;-95
2023/10/14 19:25:49;;;;;;;1999.90;999.90;;;9.40;99.90;;;;;;4942392;28;20051;-96
2023/10/14 19:28:21;;;;;;;1999.90;999.90;;;9.10;99.90;;;;;;4941104;29;20055;-95
2023/10/14 19:30:48;;;;;;;1999.90;999.90;;;9.20;99.90;;;;;;4943118;28;20360;-95
2023/10/14 19:33:16;;;;;;;1999.90;999.90;;;9.20;99.90;;;;;;4940082;29;20046;-95
2023/10/14 19:35:52;;;;;;;1999.90;999.90;;;9.40;99.90;;;;;;4940491;28;20051;-96
2023/10/14 19:38:20;;;;;;;1999.90;999.90;;;9.20;99.90;;;;;;4939069;29;20464;-95
2023/10/14 19:41:03;;;;;;;1999.90;999.90;;;9.10;99.90;;;;;;4940756;28;20047;-93
2023/10/14 19:43:33;;;;;;;1999.90;999.90;;;9.10;99.90;;;;;;4938091;28;20051;-94
2023/10/14 19:46:00;;;;;;;1999.90;999.90;;;9.00;99.90;;;;;;4939639;28;20039;-95
2023/10/14 19:48:27;;;;;;;1999.90;999.90;;;9.00;99.90;;;;;;4938135;28;20067;-95
2023/10/14 19:50:53;;;;;;;1999.90;999.90;;;8.90;99.90;;;;;;4933521;29;20531;-94
2023/10/14 19:53:22;;;;;;;1999.90;999.90;;;8.90;99.90;;;;;;4932400;29;20059;-94
2023/10/14 19:55:48;;;;;;;1999.90;999.90;;;8.90;99.90;;;;;;4944196;28;20162;-96
2023/10/14 19:58:17;;;;;;;1999.90;999.90;;;8.90;99.90;;;;;;4932683;28;20047;-94
2023/10/14 20:00:45;;;;;;;1999.90;999.90;;;8.90;99.90;;;;;;4937149;28;20484;-94
2023/10/14 20:03:12;;;;;;;1999.90;999.90;;;8.90;99.90;;;;;;4933833;29;20056;-93
2023/10/14 20:05:45;;;;;;;1999.90;999.90;;;8.90;99.90;;;;;;4936993;28;20043;-94
2023/10/14 20:08:19;;;;;;;1999.90;999.90;;;8.90;99.90;;;;;;4931996;28;20190;-95
2023/10/14 20:10:45;;;;;;;1999.90;999.90;;;8.90;99.90;;;;;;4933029;28;20046;-95
2023/10/14 20:13:15;;;;;;;1999.90;999.90;;;8.80;99.90;;;;;;4935687;29;20043;-94
2023/10/14 20:15:41;;;;;;;1999.90;999.90;;;8.90;99.90;;;;;;4936752;28;20066;-95
2023/10/14 20:18:12;;;;;;;1999.90;999.90;;;8.90;99.90;;;;;;4931370;28;20047;-95
2023/10/14 20:20:40;;;;;;;1999.90;999.90;;;8.90;99.90;;;;;;4931388;28;20043;-94
2023/10/14 20:23:10;;;;;;;1999.90;999.90;;;9.00;99.90;;;;;;4969512;28;20542;-94
2023/10/14 20:25:36;;;;;;;1999.90;999.90;;;9.10;99.90;;;;;;4935648;29;20047;-94
2023/10/14 20:28:02;;;;;;;1999.90;999.90;;;9.20;99.90;;;;;;4952771;28;20043;-94
2023/10/14 20:30:29;;;;;;;1999.90;999.90;;;9.10;99.90;;;;;;4937458;28;20055;-94
2023/10/14 20:32:57;;;;;;;1999.90;999.90;;;9.10;99.90;;;;;;4938368;28;20053;-94
2023/10/14 20:35:24;;;;;;;1999.90;999.90;;;9.00;99.90;;;;;;4938718;28;20105;-95
2023/10/14 20:37:56;;;;;;;1999.90;999.90;;;9.00;99.90;;;;;;4937711;28;20086;-95
2023/10/14 20:40:23;;;;;;;1999.90;999.90;;;9.00;99.90;;;;;;4938256;28;20058;-95
2023/10/14 20:42:50;;;;;;;1999.90;999.90;;;9.00;99.90;;;;;;4935363;29;20051;-94
2023/10/14 20:45:19;;;;;;;1999.90;999.90;;;8.90;99.90;;;;;;4930429;28;20043;-95
2023/10/14 20:47:48;;;;;;;1999.90;999.90;;;8.90;99.90;;;;;;4934911;29;20039;-95
2023/10/14 20:50:21;;;;;;;1999.90;999.90;;;8.90;99.90;;;;;;4933507;28;20534;-95
2023/10/14 20:52:47;;;;;;;;;;;8.90;99.90;;;;;;4938590;28;20055;-96
2023/10/14 20:55:26;;;;;;;1999.90;999.90;;;8.90;99.90;;;;;;4966706;28;19934;-95
2023/10/14 20:57:53;;;;;;;1999.90;999.90;;;8.90;99.90;;;;;;4937279;28;20141;-96
2023/10/14 21:00:25;;;;;;;1999.90;999.90;;;8.90;99.90;;;;;;4938375;28;20046;-96
2023/10/14 21:02:54;;;;;;;1999.90;999.90;;;9.00;99.90;;;;;;4937885;28;20054;-95
2023/10/14 21:05:22;;;;;;;1999.90;999.90;;;9.10;99.90;;;;;;4938027;28;20035;-94
2023/10/14 21:07:49;;;;;;;1999.90;999.90;;;8.90;99.90;;;;;;4937406;28;20050;-96
2023/10/14 21:10:18;;;;;;;1999.90;999.90;;;8.80;99.90;;;;;;4937972;28;20081;-95
2023/10/14 21:12:45;;;;;;;1999.90;999.90;;;8.80;99.90;;;;;;4937110;28;20157;-95
2023/10/14 21:15:12;;;;;;;1999.90;999.90;;;8.70;99.90;;;;;;4926038;28;20038;-95
2023/10/14 21:17:39;;;;;;;1999.90;999.90;;;8.60;99.90;;;;;;4937602;28;20097;-95
2023/10/14 21:20:08;;;;;;;1999.90;999.90;;;8.60;99.90;;;;;;4937447;28;20126;-95
2023/10/14 21:22:36;;;;;;;1999.90;999.90;;;8.60;99.90;;;;;;4953103;28;20529;-96
2023/10/14 21:25:08;;;;;;;1999.90;999.90;;;8.60;99.90;;;;;;4938154;28;20042;-95
2023/10/14 21:27:37;;;;;;;1999.90;999.90;;;8.70;99.90;;;;;;4937058;28;20049;-95
2023/10/14 21:30:06;;;;;;;1999.90;999.90;;;8.70;99.90;;;;;;4938022;28;20125;-94
2023/10/14 21:32:33;;;;;;;1999.90;999.90;;;8.80;99.90;;;;;;4937215;28;20085;-95
2023/10/14 21:34:59;;;;;;;1999.90;999.90;;;8.80;99.90;;;;;;4938462;28;20043;-95
2023/10/14 21:37:25;;;;;;;1999.90;999.90;;;8.80;99.90;;;;;;4936894;28;20097;-95
2023/10/14 21:39:51;;;;;;;1999.90;999.90;;;8.80;99.90;;;;;;4936840;28;20046;-95
2023/10/14 21:42:17;;;;;;;1999.90;999.90;;;8.90;99.90;;;;;;4937687;28;20088;-96
2023/10/14 21:44:46;;;;;;;1999.90;999.90;;;8.90;99.90;;;;;;4934327;29;20061;-96
2023/10/14 21:47:12;;;;;;;1999.90;999.90;;;9.00;99.90;;;;;;4947636;28;20130;-95
2023/10/14 21:49:39;;;;;;;1999.90;999.90;;;9.00;99.90;;;;;;4937617;28;20112;-95
2023/10/14 21:52:05;;;;;;;1999.90;999.90;;;9.10;99.90;;;;;;4937601;28;20053;-95
2023/10/14 21:54:31;;;;;;;1999.90;999.90;;;9.10;99.90;;;;;;4953067;28;20479;-94
2023/10/14 21:56:56;;;;;;;1999.90;999.90;;;9.10;99.90;;;;;;4952806;28;20090;-95
2023/10/14 21:59:28;;;;;;;1999.90;999.90;;;9.10;99.90;;;;;;4956886;28;20051;-96
2023/10/14 22:01:56;;;;;;;1999.90;999.90;;;8.50;99.90;;;;;;4940505;28;20145;-95
2023/10/14 22:04:23;;;;;;;1999.90;999.90;;;9.10;99.90;;;;;;4941926;28;20058;-95
2023/10/14 22:06:50;;;;;;;1999.90;999.90;;;9.10;99.90;;;;;;4940675;28;20054;-94
2023/10/14 22:09:17;;;;;;;1999.90;999.90;;;9.10;99.90;;;;;;4938336;29;20097;-95
2023/10/14 22:11:45;;;;;;;1999.90;999.90;;;9.10;99.90;;;;;;4939889;28;20133;-95
2023/10/14 22:14:14;;;;;;;1999.90;999.90;;;9.10;99.90;;;;;;4941502;28;20053;-95
2023/10/14 22:16:39;;;;;;;1999.90;999.90;;;9.10;99.90;;;;;;4939548;28;20039;-95
2023/10/14 22:19:08;;;;;;;1999.90;999.90;;;9.00;99.90;;;;;;4957917;28;20141;-95
2023/10/14 22:21:35;;;;;;;1999.90;999.90;;;9.00;99.90;;;;;;4956792;28;20454;-96
2023/10/14 22:24:06;;;;;;;1999.90;999.90;;;8.90;99.90;;;;;;4957192;28;20082;-96
2023/10/14 22:26:33;;;;;;;1999.90;999.90;;;8.80;99.90;;;;;;4929084;28;20491;-95
2023/10/14 22:28:59;;;;;;;1999.90;999.90;;;8.70;99.90;;;;;;4941214;28;20050;-95
2023/10/14 22:31:25;;;;;;;1999.90;999.90;;;8.70;99.90;;;;;;4941469;28;20055;-95
2023/10/14 22:33:52;;;;;;;1999.90;999.90;;;8.60;99.90;;;;;;4940284;28;20163;-96
2023/10/14 22:36:20;;;;;;;1999.90;999.90;;;8.60;99.90;;;;;;4940660;28;20055;-96
2023/10/14 22:38:47;;;;;;;1999.90;999.90;;;8.50;99.90;;;;;;4940470;28;20055;-95
2023/10/14 22:41:13;;;;;;;1999.90;999.90;;;8.40;99.90;;;;;;4941296;28;20122;-94
2023/10/14 22:43:40;;;;;;;1999.90;999.90;;;8.30;99.90;;;;;;4940178;28;20129;-96
2023/10/14 22:46:10;;;;;;;1999.90;999.90;;;8.20;99.90;;;;;;4940083;28;20047;-96
2023/10/14 22:48:38;;;;;;;1999.90;999.90;;;8.00;99.90;;;;;;4939343;28;20055;-96
2023/10/14 22:51:03;;;;;;;1999.90;999.90;;;8.00;99.90;;;;;;4940595;28;20043;-95
2023/10/14 22:53:30;;;;;;;1999.90;999.90;;;7.90;99.90;;;;;;4939956;28;20101;-96
2023/10/14 22:55:58;;;;;;;1999.90;999.90;;;7.80;99.90;;;;;;4940033;28;20047;-95
2023/10/14 22:58:24;;;;;;;1999.90;999.90;;;7.70;99.90;;;;;;4939742;28;20062;-95
2023/10/14 23:00:52;;;;;;;1999.90;999.90;;;7.70;99.90;;;;;;4952670;28;20043;-94
2023/10/14 23:03:18;;;;;;;1999.90;999.90;;;7.70;99.90;;;;;;4956300;28;20051;-95
2023/10/14 23:05:44;;;;;;;1999.90;999.90;;;7.60;99.90;;;;;;4954863;28;20042;-96
2023/10/14 23:08:12;;;;;;;1999.90;999.90;;;7.60;99.90;;;;;;4940023;28;20082;-95
2023/10/14 23:10:39;;;;;;;1999.90;999.90;;;7.60;99.90;;;;;;4939565;28;20054;-94
2023/10/14 23:13:05;;;;;;;1999.90;999.90;;;7.60;99.90;;;;;;4939922;28;20118;-94
2023/10/14 23:15:32;;;;;;;1999.90;999.90;;;7.70;99.90;;;;;;4940033;28;20135;-95
2023/10/14 23:17:59;;;;;;;1999.90;999.90;;;7.70;99.90;;;;;;4939183;28;20062;-94
2023/10/14 23:20:27;;;;;;;1999.90;999.90;;;7.70;99.90;;;;;;4954902;28;20054;-94
2023/10/14 23:22:53;;;;;;;1999.90;999.90;;;7.70;99.90;;;;;;4955716;28;20050;-95
2023/10/14 23:25:19;;;;;;;1999.90;999.90;;;7.70;99.90;;;;;;4939596;28;20039;-94
2023/10/14 23:27:45;;;;;;;1999.90;999.90;;;7.60;99.90;;;;;;4939388;28;20047;-95
2023/10/14 23:30:17;;;;;;;1999.90;999.90;;;7.50;99.90;;;;;;4939660;28;20740;-95
2023/10/14 23:32:43;;;;;;;1999.90;999.90;;;7.50;99.90;;;;;;4938635;28;20046;-95
2023/10/14 23:35:18;;;;;;;1999.90;999.90;;;7.30;99.90;;;;;;4939728;28;20130;-94
2023/10/14 23:37:48;;;;;;;1999.90;999.90;;;7.20;99.90;;;;;;4935670;29;20194;-94
2023/10/14 23:40:17;;;;;;;1999.90;999.90;;;7.30;99.90;;;;;;4933371;28;20105;-94
2023/10/14 23:42:45;;;;;;;1999.90;999.90;;;7.20;99.90;;;;;;4943397;28;20133;-95
2023/10/14 23:45:13;;;;;;;1999.90;999.90;;;7.10;99.90;;;;;;4939115;28;20053;-94
2023/10/14 23:47:43;;;;;;;1999.90;999.90;;;7.10;99.90;;;;;;4938373;28;20398;-95
2023/10/14 23:50:18;;;;;;;1999.90;999.90;;;7.10;99.90;;;;;;4939372;28;20054;-94
2023/10/14 23:52:49;;;;;;;1999.90;999.90;;;7.10;99.90;;;;;;4938926;28;20406;-94
2023/10/14 23:55:17;;;;;;;1999.90;999.90;;;7.10;99.90;;;;;;4938569;28;20039;-94
2023/10/14 23:57:45;;;;;;;1999.90;999.90;;;7.20;99.90;;;;;;4939219;28;20073;-93
